Terminal Aerodrome Forecast
Issued by NWS Twin Cities, MN

Home | Current Version | Previous Version | Graphics & Text | Print | Product List | Glossary On
Versions: 1 2 3 4 5 6 7 8 9 10 11 12 13 14 15 16 17 18 19 20 21 22 23 24 25 26 27 28 29
127
FTUS43 KMPX 220530
TAFMSP
TAF
KMSP 220530Z 2206/2312 11012KT P6SM VCSH SCT009 OVC030
      TEMPO 2206/2208 2SM TSRA BKN009CB
     FM220800 09009KT 6SM BR VCSH BKN010 OVC030
     FM221200 03008KT 5SM BR BKN007 OVC012
     FM221700 02010KT P6SM SCT012 OVC020
     FM222300 04010KT P6SM VCSH OVC025=

USA.gov is the U.S. government's official web portal to all federal, state and local government web resources and services.